Airfield :
LOGIN :

Register | Disclaimer

   EN    FR    IT 

 










Legend :    VFR   Marginal VFR   IFR   Intensive IFR   Very Intensive IFR
Visi :
Ceiling :
>= 8 km
>= 3000ft
5 to 8 km
1000 to 3000 ft
1500m to 5 km
500 to 1000 ft
800 to 1500m
200 to 500 ft
< 800m
< 200 ft
Symbols :   Thunderstorms  Fog  Heavy snow  Heavy precipitations  Wind > 20 kt
SIGMETs :     Misc.  Thunderstorms  Icing  Turbulence  Mountain Waves  Volcanic Ashes







- Airport Elevation : 1302 ft
- IATA code : GNB
- Download approach charts


LFLS - Grenoble / St. Geoirs

CURRENT METAR :
  • 210700Z AUTO 11005KT 1800 0200 R09/2300U R27/M0200N BCFG VV/// 05/04 Q1024 TEMPO 0300 FG BKN003

EXPIRED METARs :
  • 210630Z AUTO 04005KT 3000 0550 R09/P2400 R27/1700D BCFG FEW018 07/06 Q1024 TEMPO 0300 FG VV///
  • 210600Z AUTO 09005KT 0650 0550 R09/0550D R27/1700U FG FEW002 SCT015 05/04 Q1024 TEMPO 0300 FG VV///
  • 210530Z AUTO 11005KT 0650 0300 R09/1100D R27/0325N FG FEW003 04/04 Q1025 TEMPO 0300 FG VV///
  • 210500Z AUTO 10005KT 0550 0450 R09/0650N R27/1400U FG FEW001 05/04 Q1025 TEMPO 0300 FG VV///
  • 210430Z AUTO 10005KT 1200 0350 R09/1800D R27/0650U BCFG VV/// 04/03 Q1025 TEMPO 0300 FG

TAF AMD TAF LFLS
Valid from the 21 at 04:00 until the 22 at 03:00 UTC


210410Z 2104/2203 VRB02KT 2000 BR NSC
TEMPO 2104/2108 0300 FG VV///
PROB30
TEMPO 2108/2110 BKN003
BECMG 2110/2112 36008KT 7000 NSW
BECMG 2116/2118 VRB02KT
PROB40
TEMPO 2121/2203 4000 BR
ATIS : +33 4 76 65 55 89
No reported NOTAMs for that airfield.



MET'MAP, your aeronautical weather chart ! - Copyright ORBIFLY December 2007 - Disclaimer

ORBIFLY MET'MAP TEAM :

Programming & Development : Alexandra Zaïnal
Concept & Development : Baudouin d'Aumeries
Co-Development & Prog : Marc-Olivier Méhu
Technical & hardware support : Manuel Goepfert

Contact : metmap@orbifly.com




SOURCES & CREDITS :

   NOAA